createdAt,value
2022-12-22T00:01:55.562Z,9.10
2022-12-22T00:04:41.958Z,9.00
2022-12-22T00:07:27.363Z,9.00
2022-12-22T00:10:12.932Z,8.90
2022-12-22T00:13:01.011Z,8.90
2022-12-22T00:15:50.117Z,9.00
2022-12-22T00:18:35.660Z,9.10
2022-12-22T00:21:21.108Z,9.00
2022-12-22T00:24:06.566Z,9.00
2022-12-22T00:26:53.730Z,9.00
2022-12-22T00:29:40.235Z,9.00
2022-12-22T00:32:31.772Z,9.00
2022-12-22T00:35:17.376Z,9.00
2022-12-22T00:38:03.004Z,9.20
2022-12-22T00:40:48.443Z,9.10
2022-12-22T00:43:34.062Z,9.10
2022-12-22T00:46:21.664Z,9.00
2022-12-22T00:49:07.719Z,9.10
2022-12-22T00:51:53.471Z,9.10
2022-12-22T00:54:41.203Z,9.10
2022-12-22T00:57:39.563Z,9.10
2022-12-22T01:00:25.730Z,9.10
2022-12-22T01:03:11.298Z,9.10
2022-12-22T01:05:56.821Z,9.00
2022-12-22T01:08:42.341Z,9.00
2022-12-22T01:11:27.785Z,9.10
2022-12-22T01:14:13.241Z,9.10
2022-12-22T01:16:58.621Z,9.10
2022-12-22T01:19:44.189Z,9.20
2022-12-22T01:22:40.682Z,9.20
2022-12-22T01:25:34.914Z,9.10
2022-12-22T01:28:20.594Z,9.20
2022-12-22T01:31:06.357Z,9.20
2022-12-22T01:33:51.617Z,9.30
2022-12-22T01:36:37.065Z,9.30
2022-12-22T01:39:22.493Z,9.20
2022-12-22T01:42:08.551Z,9.20
2022-12-22T01:44:54.217Z,9.20
2022-12-22T01:47:48.172Z,9.20
2022-12-22T01:50:44.342Z,9.20
2022-12-22T01:53:34.424Z,9.20
2022-12-22T01:56:20.426Z,9.20
2022-12-22T01:59:11.098Z,9.20
2022-12-22T02:01:57.984Z,9.40
2022-12-22T02:04:50.873Z,9.30
2022-12-22T02:07:56.575Z,9.30
2022-12-22T02:11:18.920Z,9.20
2022-12-22T02:14:22.547Z,9.20
2022-12-22T02:17:18.601Z,9.20
2022-12-22T02:20:28.555Z,9.20
2022-12-22T02:23:25.068Z,9.20
2022-12-22T02:26:18.314Z,9.30
2022-12-22T02:29:06.430Z,9.20
2022-12-22T02:31:57.584Z,9.30
2022-12-22T02:34:43.562Z,9.30
2022-12-22T02:40:46.046Z,9.50
2022-12-22T02:43:38.710Z,9.40
2022-12-22T02:46:35.242Z,9.40
2022-12-22T02:49:39.891Z,9.40
2022-12-22T02:52:38.574Z,9.30
2022-12-22T02:55:25.476Z,9.50
2022-12-22T02:58:11.609Z,9.70
2022-12-22T03:00:58.931Z,9.70
2022-12-22T03:03:44.500Z,9.60
2022-12-22T03:06:30.018Z,9.60
2022-12-22T03:09:15.452Z,9.50
2022-12-22T03:12:01.022Z,9.40
2022-12-22T03:14:46.628Z,9.40
2022-12-22T03:17:32.121Z,9.60
2022-12-22T03:20:17.548Z,9.70
2022-12-22T03:23:03.050Z,9.60
2022-12-22T03:25:48.559Z,9.40
2022-12-22T03:28:15.740Z,9.30
2022-12-22T03:30:42.459Z,9.40
2022-12-22T03:33:09.192Z,9.50
2022-12-22T03:35:36.076Z,9.50
2022-12-22T03:38:03.669Z,9.40
2022-12-22T03:40:33.644Z,9.40
2022-12-22T03:43:19.242Z,9.20
2022-12-22T03:46:04.570Z,9.20
2022-12-22T03:48:31.377Z,9.30
2022-12-22T03:50:58.135Z,9.20
2022-12-22T03:53:24.835Z,9.20
2022-12-22T03:55:51.583Z,9.20
2022-12-22T03:58:18.297Z,9.20
2022-12-22T04:00:45.145Z,9.20
2022-12-22T04:03:11.975Z,9.20
2022-12-22T04:05:38.769Z,9.20
2022-12-22T04:08:05.784Z,9.20
2022-12-22T04:10:51.109Z,9.10
2022-12-22T04:13:17.913Z,9.20
2022-12-22T04:15:44.567Z,9.30
2022-12-22T04:18:11.316Z,9.30
2022-12-22T04:20:38.044Z,9.30
2022-12-22T04:23:04.839Z,9.20
2022-12-22T04:25:31.544Z,9.10
2022-12-22T04:27:58.801Z,9.20
2022-12-22T04:30:25.496Z,9.10
2022-12-22T04:32:52.240Z,9.10
2022-12-22T04:35:18.991Z,9.10
2022-12-22T04:40:16.838Z,9.00
2022-12-22T04:42:43.808Z,9.00
2022-12-22T04:45:11.343Z,9.00
2022-12-22T04:47:38.203Z,9.10
2022-12-22T04:50:05.742Z,9.10
2022-12-22T04:52:32.411Z,9.10
2022-12-22T04:54:59.732Z,9.10
2022-12-22T04:57:26.471Z,9.10
2022-12-22T04:59:53.186Z,9.10
2022-12-22T05:02:20.093Z,9.10
2022-12-22T05:04:46.968Z,9.20
2022-12-22T05:07:13.709Z,9.10
2022-12-22T05:09:40.460Z,9.10
2022-12-22T05:12:27.240Z,9.10
2022-12-22T05:14:54.171Z,9.10
2022-12-22T05:17:21.175Z,9.10
2022-12-22T05:19:48.077Z,9.10
2022-12-22T05:22:15.240Z,9.10
2022-12-22T05:24:41.950Z,9.10
2022-12-22T05:27:10.281Z,9.10
2022-12-22T05:29:37.043Z,9.10
2022-12-22T05:32:03.956Z,9.20
2022-12-22T05:34:30.700Z,9.20
2022-12-22T05:36:57.413Z,9.20
2022-12-22T05:39:24.108Z,9.20
2022-12-22T05:41:50.789Z,9.20
2022-12-22T05:44:17.561Z,9.20
2022-12-22T05:46:44.417Z,9.20
2022-12-22T05:49:11.220Z,9.20
2022-12-22T05:51:37.926Z,9.30
2022-12-22T05:54:04.659Z,9.30
2022-12-22T05:56:31.463Z,9.40
2022-12-22T05:58:58.137Z,9.30
2022-12-22T06:01:24.880Z,9.30
2022-12-22T06:03:57.726Z,9.40
2022-12-22T06:06:26.576Z,9.40
2022-12-22T06:08:53.322Z,9.40
2022-12-22T06:11:20.039Z,9.50
2022-12-22T06:13:46.751Z,9.40
2022-12-22T06:16:13.432Z,9.30
2022-12-22T06:18:40.106Z,9.30
2022-12-22T06:21:06.762Z,9.20
2022-12-22T06:23:33.481Z,9.20
2022-12-22T06:26:01.894Z,9.10
2022-12-22T06:28:29.279Z,9.10
2022-12-22T06:30:56.570Z,9.10
2022-12-22T06:33:23.431Z,9.10
2022-12-22T06:35:57.587Z,9.10
2022-12-22T06:38:26.433Z,9.10
2022-12-22T06:40:53.155Z,9.10
2022-12-22T06:43:19.831Z,9.20
2022-12-22T06:45:46.551Z,9.20
2022-12-22T06:48:13.755Z,9.20
2022-12-22T06:50:41.216Z,9.40
2022-12-22T06:53:09.105Z,9.40
2022-12-22T06:55:36.332Z,9.30
2022-12-22T06:58:03.642Z,9.30
2022-12-22T07:00:30.600Z,9.30
2022-12-22T07:02:57.618Z,9.40
2022-12-22T07:05:25.081Z,9.50
2022-12-22T07:07:52.630Z,9.50
2022-12-22T07:10:39.982Z,9.50
2022-12-22T07:13:19.661Z,9.60
2022-12-22T07:15:59.242Z,9.60
2022-12-22T07:18:32.298Z,9.70
2022-12-22T07:21:00.611Z,9.70
2022-12-22T07:23:27.646Z,9.70
2022-12-22T07:25:54.813Z,9.70
2022-12-22T07:28:22.162Z,9.70
2022-12-22T07:30:52.615Z,9.70
2022-12-22T07:33:19.702Z,9.60
2022-12-22T07:35:47.069Z,9.70
2022-12-22T07:38:14.140Z,9.70
2022-12-22T07:40:42.379Z,9.70
2022-12-22T07:43:09.952Z,9.70
2022-12-22T07:45:36.752Z,9.70
2022-12-22T07:48:23.787Z,9.70
2022-12-22T07:50:50.509Z,9.70
2022-12-22T07:53:17.203Z,9.70
2022-12-22T07:55:43.924Z,9.70
2022-12-22T07:58:10.654Z,9.80
2022-12-22T08:00:40.014Z,9.80
2022-12-22T08:03:06.871Z,9.80
2022-12-22T08:05:33.668Z,9.80
2022-12-22T08:08:00.336Z,9.70
2022-12-22T08:10:27.063Z,9.80
2022-12-22T08:12:53.772Z,9.70
2022-12-22T08:15:20.532Z,9.70
2022-12-22T08:17:47.237Z,9.70
2022-12-22T08:20:13.970Z,9.70
2022-12-22T08:22:40.636Z,9.70
2022-12-22T08:25:07.673Z,9.70
2022-12-22T08:27:40.568Z,9.80
2022-12-22T08:30:08.573Z,9.80
2022-12-22T08:32:37.345Z,9.80
2022-12-22T08:35:05.982Z,9.80
2022-12-22T08:40:18.077Z,9.90
2022-12-22T08:42:46.059Z,9.90
2022-12-22T08:45:12.958Z,9.90
2022-12-22T08:47:39.955Z,9.90
2022-12-22T08:50:07.667Z,9.80
2022-12-22T08:52:34.468Z,9.80
2022-12-22T08:55:01.213Z,9.80
2022-12-22T08:57:28.279Z,9.80
2022-12-22T08:59:55.236Z,9.90
2022-12-22T09:02:22.480Z,9.90
2022-12-22T09:04:49.508Z,9.90
2022-12-22T09:07:16.525Z,10.00
2022-12-22T09:09:43.621Z,10.10
2022-12-22T09:12:10.790Z,10.10
2022-12-22T09:14:37.569Z,10.00
2022-12-22T09:17:04.589Z,10.10
2022-12-22T09:19:31.366Z,10.00
2022-12-22T09:21:58.062Z,10.00
2022-12-22T09:24:24.731Z,10.20
2022-12-22T09:26:51.599Z,10.20
2022-12-22T09:29:18.335Z,10.20
2022-12-22T09:31:45.345Z,10.20
2022-12-22T09:34:17.475Z,10.20
2022-12-22T09:36:45.989Z,10.10
2022-12-22T09:39:13.117Z,10.00
2022-12-22T09:41:57.307Z,10.00
2022-12-22T09:44:34.285Z,10.00
2022-12-22T09:47:03.855Z,10.10
2022-12-22T09:49:31.082Z,10.10
2022-12-22T09:52:00.571Z,10.20
2022-12-22T09:54:27.928Z,10.30
2022-12-22T09:56:54.605Z,10.30
2022-12-22T09:59:22.113Z,10.20
2022-12-22T10:02:23.604Z,10.10
2022-12-22T10:05:30.840Z,10.00
2022-12-22T10:08:02.718Z,9.90
2022-12-22T10:10:31.176Z,9.80
2022-12-22T10:13:01.538Z,9.80
2022-12-22T10:15:37.039Z,9.80
2022-12-22T10:18:17.304Z,9.90
2022-12-22T10:20:47.171Z,9.90
2022-12-22T10:23:18.658Z,9.90
2022-12-22T10:28:48.103Z,9.80
2022-12-22T10:31:29.020Z,9.80
2022-12-22T10:34:09.349Z,9.90
2022-12-22T10:36:36.667Z,9.90
2022-12-22T10:39:09.676Z,9.80
2022-12-22T10:41:43.727Z,9.80
2022-12-22T10:44:20.749Z,9.60
2022-12-22T10:46:52.769Z,9.60
2022-12-22T10:49:23.485Z,9.60
2022-12-22T10:52:09.899Z,9.60
2022-12-22T10:54:44.284Z,9.60
2022-12-22T10:57:14.198Z,9.70
2022-12-22T10:59:54.265Z,9.70
2022-12-22T11:02:21.242Z,9.70
2022-12-22T11:04:49.108Z,9.60
2022-12-22T11:07:16.186Z,9.60
2022-12-22T11:09:43.265Z,9.50
2022-12-22T11:12:39.864Z,9.50
2022-12-22T11:15:32.205Z,9.50
2022-12-22T11:18:23.027Z,9.50
2022-12-22T11:21:15.178Z,9.60
2022-12-22T11:24:11.879Z,9.60
2022-12-22T11:26:38.541Z,9.60
2022-12-22T11:29:13.083Z,9.50
2022-12-22T11:32:17.511Z,9.60
2022-12-22T11:35:20.116Z,9.60
2022-12-22T11:37:48.619Z,9.60
2022-12-22T11:40:30.868Z,9.60
2022-12-22T11:43:14.396Z,9.60
2022-12-22T11:46:02.404Z,9.70
2022-12-22T11:49:07.035Z,9.60
2022-12-22T11:51:50.325Z,9.50
2022-12-22T11:54:32.276Z,9.40
2022-12-22T11:57:26.515Z,9.50
2022-12-22T12:00:15.532Z,9.70
2022-12-22T12:02:56.115Z,9.80
2022-12-22T12:05:49.102Z,9.90
2022-12-22T12:08:41.300Z,9.80
2022-12-22T12:11:26.771Z,9.80
2022-12-22T12:14:12.631Z,9.70
2022-12-22T12:16:42.998Z,9.70
2022-12-22T12:19:47.347Z,9.80
2022-12-22T12:22:46.152Z,9.70
2022-12-22T12:25:25.776Z,9.90
2022-12-22T12:28:14.814Z,10.00
2022-12-22T12:30:49.184Z,10.10
2022-12-22T12:33:36.498Z,10.10
2022-12-22T12:36:09.010Z,10.10
2022-12-22T12:39:10.863Z,10.30
2022-12-22T12:42:00.629Z,10.30
2022-12-22T12:44:32.892Z,10.40
2022-12-22T12:47:07.231Z,10.20
2022-12-22T12:49:34.027Z,10.10
2022-12-22T12:52:02.578Z,10.00
2022-12-22T12:54:29.194Z,10.00
2022-12-22T12:57:00.154Z,9.90
2022-12-22T12:59:42.040Z,9.80
2022-12-22T13:02:55.335Z,9.70
2022-12-22T13:05:45.401Z,9.60
2022-12-22T13:08:20.210Z,9.60
2022-12-22T13:10:52.993Z,9.60
2022-12-22T13:13:25.249Z,9.60
2022-12-22T13:16:01.223Z,9.50
2022-12-22T13:18:30.764Z,9.40
2022-12-22T13:21:18.759Z,9.50
2022-12-22T13:24:24.082Z,9.60
2022-12-22T13:26:48.643Z,9.60
2022-12-22T13:29:45.395Z,9.70
2022-12-22T13:32:35.844Z,9.70
2022-12-22T13:35:31.380Z,9.80
2022-12-22T13:37:59.189Z,9.80
2022-12-22T13:40:31.208Z,9.70
2022-12-22T13:43:04.655Z,9.80
2022-12-22T13:45:33.502Z,9.90
2022-12-22T13:48:02.005Z,9.90
2022-12-22T13:50:34.435Z,9.90
2022-12-22T13:53:02.048Z,9.90
2022-12-22T13:55:31.375Z,9.80
2022-12-22T13:58:09.404Z,9.90
2022-12-22T14:00:36.538Z,9.90
2022-12-22T14:03:08.898Z,9.90
2022-12-22T14:05:35.908Z,10.00
2022-12-22T14:08:07.357Z,9.90
2022-12-22T14:10:42.197Z,9.90
2022-12-22T14:13:15.449Z,9.90
2022-12-22T14:15:46.178Z,9.90
2022-12-22T14:18:16.607Z,9.80
2022-12-22T14:20:46.034Z,9.90
2022-12-22T14:23:30.659Z,9.80
2022-12-22T14:25:58.310Z,9.80
2022-12-22T14:28:27.115Z,9.70
2022-12-22T14:30:58.745Z,9.70
2022-12-22T14:33:28.274Z,9.70
2022-12-22T14:36:13.727Z,9.70
2022-12-22T14:38:49.612Z,9.60
2022-12-22T14:41:41.563Z,9.50
2022-12-22T14:44:15.052Z,9.50
2022-12-22T14:46:43.980Z,9.40
2022-12-22T14:49:16.452Z,9.40
2022-12-22T14:51:43.577Z,9.40
2022-12-22T14:54:20.839Z,9.30
2022-12-22T14:56:52.867Z,9.30
2022-12-22T14:59:28.120Z,9.30
2022-12-22T15:02:19.844Z,9.20
2022-12-22T15:04:46.682Z,9.20
2022-12-22T15:07:54.089Z,9.20
2022-12-22T15:10:16.362Z,9.20
2022-12-22T15:12:44.250Z,9.10
2022-12-22T15:15:19.691Z,9.10
2022-12-22T15:17:48.263Z,9.10
2022-12-22T15:20:26.940Z,9.00
2022-12-22T15:22:54.116Z,9.00
2022-12-22T15:25:24.768Z,9.00
2022-12-22T15:27:52.305Z,9.00
2022-12-22T15:30:26.907Z,8.90
2022-12-22T15:32:55.153Z,8.90
2022-12-22T15:35:31.656Z,8.80
2022-12-22T15:37:59.060Z,8.80
2022-12-22T15:40:26.325Z,8.80
2022-12-22T15:42:53.428Z,8.80
2022-12-22T15:45:22.035Z,8.80
2022-12-22T15:47:53.302Z,8.90
2022-12-22T15:50:25.211Z,8.90
2022-12-22T15:52:55.374Z,8.80
2022-12-22T15:55:22.536Z,8.80
2022-12-22T15:57:54.994Z,8.80
2022-12-22T16:00:22.139Z,8.80
2022-12-22T16:02:49.751Z,8.80
2022-12-22T16:05:17.282Z,8.80
2022-12-22T16:07:45.021Z,8.80
2022-12-22T16:10:23.737Z,8.80
2022-12-22T16:12:55.536Z,8.80
2022-12-22T16:15:22.640Z,8.80
2022-12-22T16:17:52.089Z,8.80
2022-12-22T16:20:19.449Z,8.90
2022-12-22T16:22:46.185Z,8.90
2022-12-22T16:25:17.835Z,8.90
2022-12-22T16:27:47.806Z,8.90
2022-12-22T16:30:21.455Z,8.90
2022-12-22T16:32:48.447Z,8.90
2022-12-22T16:35:20.327Z,9.00
2022-12-22T16:37:49.055Z,9.00
2022-12-22T16:40:19.557Z,9.00
2022-12-22T16:45:45.038Z,9.10
2022-12-22T16:48:29.883Z,9.10
2022-12-22T16:50:56.676Z,9.10
2022-12-22T16:53:23.368Z,9.20
2022-12-22T16:55:50.156Z,9.20
2022-12-22T16:58:16.948Z,9.20
2022-12-22T17:00:45.237Z,9.30
2022-12-22T17:03:15.938Z,9.30
2022-12-22T17:05:53.066Z,9.30
2022-12-22T17:08:25.847Z,9.30
2022-12-22T17:10:53.891Z,9.40
2022-12-22T17:13:22.120Z,9.40
2022-12-22T17:15:48.899Z,9.40
2022-12-22T17:18:18.179Z,9.40
2022-12-22T17:20:47.644Z,9.50
2022-12-22T17:23:33.085Z,9.50
2022-12-22T17:26:02.490Z,9.50
2022-12-22T17:28:29.553Z,9.50
2022-12-22T17:30:56.321Z,9.50
2022-12-22T17:33:23.271Z,9.50
2022-12-22T17:35:50.476Z,9.50
2022-12-22T17:38:21.034Z,9.60
2022-12-22T17:40:49.368Z,9.60
2022-12-22T17:43:18.264Z,9.60
2022-12-22T17:45:46.057Z,9.60
2022-12-22T17:48:14.539Z,9.60
2022-12-22T17:50:43.006Z,9.60
2022-12-22T17:53:14.838Z,9.60
2022-12-22T17:56:07.135Z,9.60
2022-12-22T17:58:28.478Z,9.70
2022-12-22T18:00:55.191Z,9.70
2022-12-22T18:03:22.133Z,9.70
2022-12-22T18:05:49.439Z,9.70
2022-12-22T18:08:19.008Z,9.80
2022-12-22T18:10:46.594Z,9.80
2022-12-22T18:13:22.663Z,9.70
2022-12-22T18:15:49.539Z,9.80
2022-12-22T18:18:18.264Z,9.80
2022-12-22T18:20:47.052Z,9.70
2022-12-22T18:23:34.036Z,9.90
2022-12-22T18:26:01.278Z,9.90
2022-12-22T18:28:28.069Z,9.90
2022-12-22T18:30:54.769Z,9.90
2022-12-22T18:33:21.631Z,9.90
2022-12-22T18:35:49.232Z,9.90
2022-12-22T18:38:27.314Z,9.90
2022-12-22T18:40:54.347Z,9.90
2022-12-22T18:43:21.161Z,9.90
2022-12-22T18:45:48.256Z,10.00
2022-12-22T18:48:15.098Z,10.00
2022-12-22T18:50:42.128Z,10.00
2022-12-22T18:53:30.297Z,10.00
2022-12-22T18:55:57.876Z,10.10
2022-12-22T18:58:25.896Z,10.00
2022-12-22T19:00:54.812Z,10.00
2022-12-22T19:03:29.409Z,10.10
2022-12-22T19:05:56.995Z,10.10
2022-12-22T19:08:26.361Z,10.10
2022-12-22T19:10:56.346Z,10.10
2022-12-22T19:13:29.928Z,10.10
2022-12-22T19:15:56.958Z,10.20
2022-12-22T19:18:27.010Z,10.20
2022-12-22T19:20:55.209Z,10.20
2022-12-22T19:23:23.697Z,10.30
2022-12-22T19:25:54.157Z,10.30
2022-12-22T19:28:41.333Z,10.20
2022-12-22T19:31:10.325Z,10.30
2022-12-22T19:33:38.580Z,10.30
2022-12-22T19:36:05.745Z,10.30
2022-12-22T19:38:34.518Z,10.30
2022-12-22T19:41:04.399Z,10.30
2022-12-22T19:43:31.427Z,10.40
2022-12-22T19:45:58.258Z,10.40
2022-12-22T19:48:27.195Z,10.40
2022-12-22T19:50:54.929Z,10.40
2022-12-22T19:53:21.901Z,10.40
2022-12-22T19:55:54.130Z,10.40
2022-12-22T19:58:27.483Z,10.40
2022-12-22T20:00:55.071Z,10.40
2022-12-22T20:03:24.864Z,10.40
2022-12-22T20:05:52.003Z,10.40
2022-12-22T20:08:19.115Z,10.40
2022-12-22T20:10:46.950Z,10.40
2022-12-22T20:13:18.336Z,10.40
2022-12-22T20:15:45.535Z,10.40
2022-12-22T20:18:21.403Z,10.40
2022-12-22T20:21:25.393Z,10.40
2022-12-22T20:23:53.163Z,10.40
2022-12-22T20:26:22.650Z,10.40
2022-12-22T20:28:52.416Z,10.40
2022-12-22T20:31:22.467Z,10.40
2022-12-22T20:33:49.929Z,10.40
2022-12-22T20:36:19.706Z,10.30
2022-12-22T20:38:47.597Z,10.40
2022-12-22T20:41:14.494Z,10.40
2022-12-22T20:43:41.901Z,10.30
2022-12-22T20:46:19.367Z,10.40
2022-12-22T20:48:49.490Z,10.30
2022-12-22T20:51:19.122Z,10.40
2022-12-22T20:53:47.068Z,10.30
2022-12-22T20:56:35.396Z,10.40
2022-12-22T20:59:18.228Z,10.40
2022-12-22T21:01:46.685Z,10.30
2022-12-22T21:04:15.120Z,10.30
2022-12-22T21:06:51.425Z,10.30
2022-12-22T21:09:19.433Z,10.30
2022-12-22T21:11:46.285Z,10.30
2022-12-22T21:14:13.447Z,10.20
2022-12-22T21:16:40.991Z,10.30
2022-12-22T21:19:07.997Z,10.30
2022-12-22T21:21:34.863Z,10.30
2022-12-22T21:24:01.634Z,10.30
2022-12-22T21:26:42.002Z,10.30
2022-12-22T21:29:22.575Z,10.30
2022-12-22T21:31:49.338Z,10.30
2022-12-22T21:34:16.135Z,10.30
2022-12-22T21:36:45.252Z,10.30
2022-12-22T21:39:31.391Z,10.30
2022-12-22T21:42:01.136Z,10.30
2022-12-22T21:44:33.206Z,10.30
2022-12-22T21:47:00.596Z,10.30
2022-12-22T21:49:29.829Z,10.30
2022-12-22T21:51:56.678Z,10.30
2022-12-22T21:54:24.946Z,10.30
2022-12-22T21:56:53.179Z,10.20
2022-12-22T21:59:20.844Z,10.20
2022-12-22T22:01:47.747Z,10.20
2022-12-22T22:04:14.972Z,10.20
2022-12-22T22:06:41.798Z,10.20
2022-12-22T22:09:08.592Z,10.20
2022-12-22T22:11:58.526Z,10.20
2022-12-22T22:14:26.970Z,10.10
2022-12-22T22:16:53.851Z,10.00
2022-12-22T22:19:20.583Z,10.00
2022-12-22T22:21:47.638Z,9.90
2022-12-22T22:24:14.503Z,9.90
2022-12-22T22:26:41.285Z,10.00
2022-12-22T22:29:08.031Z,10.00
2022-12-22T22:31:34.763Z,10.00
2022-12-22T22:34:01.540Z,9.90
2022-12-22T22:36:28.340Z,10.00
2022-12-22T22:38:55.114Z,9.90
2022-12-22T22:41:21.842Z,9.90
2022-12-22T22:43:48.551Z,9.90
2022-12-22T22:46:15.394Z,9.90
2022-12-22T22:48:42.153Z,9.90
2022-12-22T22:51:10.661Z,9.90
2022-12-22T22:53:37.379Z,9.90
2022-12-22T22:56:04.650Z,9.90
2022-12-22T22:58:31.502Z,9.80
2022-12-22T23:01:07.934Z,9.70
2022-12-22T23:03:35.346Z,9.80
2022-12-22T23:06:06.700Z,9.70
2022-12-22T23:08:34.143Z,9.70
2022-12-22T23:11:02.444Z,9.80
2022-12-22T23:13:29.749Z,9.90
2022-12-22T23:15:58.764Z,9.90
2022-12-22T23:18:26.323Z,10.00
2022-12-22T23:20:53.110Z,10.00
2022-12-22T23:23:20.252Z,10.00
2022-12-22T23:25:50.173Z,10.00
2022-12-22T23:28:18.762Z,10.00
2022-12-22T23:30:49.005Z,10.00
2022-12-22T23:33:16.021Z,10.00
2022-12-22T23:35:45.576Z,10.00
2022-12-22T23:38:12.818Z,10.00
2022-12-22T23:40:56.227Z,10.10
2022-12-22T23:43:22.997Z,10.10
2022-12-22T23:45:49.728Z,10.00
2022-12-22T23:48:16.509Z,10.10
2022-12-22T23:50:46.336Z,10.10
2022-12-22T23:53:13.388Z,10.10
2022-12-22T23:55:47.713Z,10.10
2022-12-22T23:58:15.233Z,10.10
